sensor_id;sensor_type;location;lat;lon;timestamp;temperature;humidity
75262;DHT22;63859;51.064;4.580;2024-03-23T00:55:43;7.90;99.90
75262;DHT22;63859;51.064;4.580;2024-03-23T00:58:09;7.90;99.90
75262;DHT22;63859;51.064;4.580;2024-03-23T01:00:35;7.80;99.90
75262;DHT22;63859;51.064;4.580;2024-03-23T01:05:27;7.70;99.90
75262;DHT22;63859;51.064;4.580;2024-03-23T01:07:52;7.60;99.90
75262;DHT22;63859;51.064;4.580;2024-03-23T01:10:18;7.60;99.90
75262;DHT22;63859;51.064;4.580;2024-03-23T01:12:44;7.60;99.90
75262;DHT22;63859;51.064;4.580;2024-03-23T01:15:10;7.60;99.90
75262;DHT22;63859;51.064;4.580;2024-03-23T01:17:35;7.60;99.90
75262;DHT22;63859;51.064;4.580;2024-03-23T01:20:01;7.60;99.90
75262;DHT22;63859;51.064;4.580;2024-03-23T01:22:27;7.60;99.90
75262;DHT22;63859;51.064;4.580;2024-03-23T01:24:53;7.60;99.90
75262;DHT22;63859;51.064;4.580;2024-03-23T01:27:18;7.60;99.90
75262;DHT22;63859;51.064;4.580;2024-03-23T01:29:44;7.50;99.90
75262;DHT22;63859;51.064;4.580;2024-03-23T01:32:10;7.50;99.90
75262;DHT22;63859;51.064;4.580;2024-03-23T01:34:35;7.50;99.90
75262;DHT22;63859;51.064;4.580;2024-03-23T01:37:01;7.50;99.90
75262;DHT22;63859;51.064;4.580;2024-03-23T01:39:27;7.40;99.90
75262;DHT22;63859;51.064;4.580;2024-03-23T01:41:52;7.50;99.90
75262;DHT22;63859;51.064;4.580;2024-03-23T01:44:18;7.50;99.90
75262;DHT22;63859;51.064;4.580;2024-03-23T01:46:44;7.40;99.90
75262;DHT22;63859;51.064;4.580;2024-03-23T01:49:10;7.40;99.90
75262;DHT22;63859;51.064;4.580;2024-03-23T01:51:36;7.40;99.90
75262;DHT22;63859;51.064;4.580;2024-03-23T01:54:03;7.40;99.90
75262;DHT22;63859;51.064;4.580;2024-03-23T01:56:33;7.30;99.90
75262;DHT22;63859;51.064;4.580;2024-03-23T01:59:01;7.30;99.90
75262;DHT22;63859;51.064;4.580;2024-03-23T02:01:27;7.30;99.90
75262;DHT22;63859;51.064;4.580;2024-03-23T02:03:53;7.20;99.90
75262;DHT22;63859;51.064;4.580;2024-03-23T02:06:18;7.10;99.90
75262;DHT22;63859;51.064;4.580;2024-03-23T02:08:44;7.10;99.90
75262;DHT22;63859;51.064;4.580;2024-03-23T02:11:10;7.10;99.90
75262;DHT22;63859;51.064;4.580;2024-03-23T02:13:35;7.10;99.90
75262;DHT22;63859;51.064;4.580;2024-03-23T02:16:01;7.10;99.90
75262;DHT22;63859;51.064;4.580;2024-03-23T02:18:27;7.10;99.90
75262;DHT22;63859;51.064;4.580;2024-03-23T02:20:53;7.10;99.90
75262;DHT22;63859;51.064;4.580;2024-03-23T02:23:18;7.10;99.90
75262;DHT22;63859;51.064;4.580;2024-03-23T02:25:44;7.10;99.90
75262;DHT22;63859;51.064;4.580;2024-03-23T02:28:10;7.10;99.90
75262;DHT22;63859;51.064;4.580;2024-03-23T02:30:36;7.10;99.90
75262;DHT22;63859;51.064;4.580;2024-03-23T02:33:03;7.00;99.90
75262;DHT22;63859;51.064;4.580;2024-03-23T02:35:28;7.00;99.90
75262;DHT22;63859;51.064;4.580;2024-03-23T02:37:54;7.00;99.90
75262;DHT22;63859;51.064;4.580;2024-03-23T02:40:23;7.00;99.90
75262;DHT22;63859;51.064;4.580;2024-03-23T02:42:49;7.00;99.90
75262;DHT22;63859;51.064;4.580;2024-03-23T02:45:15;7.00;99.90
75262;DHT22;63859;51.064;4.580;2024-03-23T02:47:41;7.00;99.90
75262;DHT22;63859;51.064;4.580;2024-03-23T02:50:07;7.00;99.90
75262;DHT22;63859;51.064;4.580;2024-03-23T02:52:34;7.00;99.90
75262;DHT22;63859;51.064;4.580;2024-03-23T02:54:59;7.00;99.90
75262;DHT22;63859;51.064;4.580;2024-03-23T02:57:27;7.00;99.90
75262;DHT22;63859;51.064;4.580;2024-03-23T02:59:53;7.00;99.90
75262;DHT22;63859;51.064;4.580;2024-03-23T03:02:19;7.00;99.90
75262;DHT22;63859;51.064;4.580;2024-03-23T03:04:45;7.00;99.90
75262;DHT22;63859;51.064;4.580;2024-03-23T03:07:11;7.00;99.90
75262;DHT22;63859;51.064;4.580;2024-03-23T03:09:36;7.00;99.90
75262;DHT22;63859;51.064;4.580;2024-03-23T03:12:08;6.90;99.90
75262;DHT22;63859;51.064;4.580;2024-03-23T03:14:34;6.90;99.90
75262;DHT22;63859;51.064;4.580;2024-03-23T03:17:00;6.90;99.90
75262;DHT22;63859;51.064;4.580;2024-03-23T03:19:25;6.90;99.90
75262;DHT22;63859;51.064;4.580;2024-03-23T03:21:51;6.80;99.90
75262;DHT22;63859;51.064;4.580;2024-03-23T03:24:17;6.80;99.90
75262;DHT22;63859;51.064;4.580;2024-03-23T03:26:43;6.80;99.90
75262;DHT22;63859;51.064;4.580;2024-03-23T03:29:08;6.80;99.90
75262;DHT22;63859;51.064;4.580;2024-03-23T03:31:34;6.80;99.90
75262;DHT22;63859;51.064;4.580;2024-03-23T03:34:00;6.70;99.90
75262;DHT22;63859;51.064;4.580;2024-03-23T03:36:26;6.80;99.90
75262;DHT22;63859;51.064;4.580;2024-03-23T03:38:51;6.70;99.90
75262;DHT22;63859;51.064;4.580;2024-03-23T03:41:18;6.70;99.90
75262;DHT22;63859;51.064;4.580;2024-03-23T03:43:44;6.70;99.90
75262;DHT22;63859;51.064;4.580;2024-03-23T03:46:10;6.70;99.90
75262;DHT22;63859;51.064;4.580;2024-03-23T03:48:36;6.60;99.90
75262;DHT22;63859;51.064;4.580;2024-03-23T03:51:02;6.60;99.90
75262;DHT22;63859;51.064;4.580;2024-03-23T03:53:28;6.60;99.90
75262;DHT22;63859;51.064;4.580;2024-03-23T03:55:54;6.60;99.90
75262;DHT22;63859;51.064;4.580;2024-03-23T03:58:19;6.60;99.90
75262;DHT22;63859;51.064;4.580;2024-03-23T04:00:45;6.60;99.90
75262;DHT22;63859;51.064;4.580;2024-03-23T04:03:11;6.60;99.90
75262;DHT22;63859;51.064;4.580;2024-03-23T04:05:36;6.60;99.90
75262;DHT22;63859;51.064;4.580;2024-03-23T04:08:03;6.50;99.90
75262;DHT22;63859;51.064;4.580;2024-03-23T04:10:30;6.50;99.90
75262;DHT22;63859;51.064;4.580;2024-03-23T04:12:55;6.50;99.90
75262;DHT22;63859;51.064;4.580;2024-03-23T04:15:21;6.60;99.90
75262;DHT22;63859;51.064;4.580;2024-03-23T04:17:47;6.50;99.90
75262;DHT22;63859;51.064;4.580;2024-03-23T04:20:13;6.50;99.90
75262;DHT22;63859;51.064;4.580;2024-03-23T04:22:42;6.50;99.90
75262;DHT22;63859;51.064;4.580;2024-03-23T04:25:08;6.50;99.90
75262;DHT22;63859;51.064;4.580;2024-03-23T04:27:36;6.50;99.90
75262;DHT22;63859;51.064;4.580;2024-03-23T04:30:03;6.50;99.90
75262;DHT22;63859;51.064;4.580;2024-03-23T04:32:30;6.50;99.90
75262;DHT22;63859;51.064;4.580;2024-03-23T04:34:56;6.50;99.90
75262;DHT22;63859;51.064;4.580;2024-03-23T04:37:22;6.50;99.90
75262;DHT22;63859;51.064;4.580;2024-03-23T04:39:48;6.50;99.90
75262;DHT22;63859;51.064;4.580;2024-03-23T04:42:15;6.50;99.90
75262;DHT22;63859;51.064;4.580;2024-03-23T04:44:41;6.50;99.90
75262;DHT22;63859;51.064;4.580;2024-03-23T04:47:07;6.50;99.90
75262;DHT22;63859;51.064;4.580;2024-03-23T04:49:33;6.50;99.90
75262;DHT22;63859;51.064;4.580;2024-03-23T04:51:59;6.50;99.90
75262;DHT22;63859;51.064;4.580;2024-03-23T04:54:24;6.50;99.90
75262;DHT22;63859;51.064;4.580;2024-03-23T04:56:50;6.50;99.90
75262;DHT22;63859;51.064;4.580;2024-03-23T04:59:16;6.50;99.90
75262;DHT22;63859;51.064;4.580;2024-03-23T05:01:41;6.50;99.90
75262;DHT22;63859;51.064;4.580;2024-03-23T05:04:08;6.50;99.90
75262;DHT22;63859;51.064;4.580;2024-03-23T05:06:33;6.50;99.90
75262;DHT22;63859;51.064;4.580;2024-03-23T05:09:00;6.50;99.90
75262;DHT22;63859;51.064;4.580;2024-03-23T05:11:31;6.40;99.90
75262;DHT22;63859;51.064;4.580;2024-03-23T05:13:57;6.40;99.90
75262;DHT22;63859;51.064;4.580;2024-03-23T05:16:23;6.40;99.90
75262;DHT22;63859;51.064;4.580;2024-03-23T05:18:48;6.40;99.90
75262;DHT22;63859;51.064;4.580;2024-03-23T05:21:14;6.40;99.90
75262;DHT22;63859;51.064;4.580;2024-03-23T05:23:41;6.40;99.90
75262;DHT22;63859;51.064;4.580;2024-03-23T05:26:08;6.40;99.90
75262;DHT22;63859;51.064;4.580;2024-03-23T05:28:35;6.40;99.90
75262;DHT22;63859;51.064;4.580;2024-03-23T05:31:00;6.40;99.90
75262;DHT22;63859;51.064;4.580;2024-03-23T05:33:26;6.30;99.90
75262;DHT22;63859;51.064;4.580;2024-03-23T05:36:01;6.30;99.90
75262;DHT22;63859;51.064;4.580;2024-03-23T05:38:27;6.30;99.90
75262;DHT22;63859;51.064;4.580;2024-03-23T05:40:57;6.30;99.90
75262;DHT22;63859;51.064;4.580;2024-03-23T05:43:23;6.30;99.90
75262;DHT22;63859;51.064;4.580;2024-03-23T05:45:56;6.30;99.90
75262;DHT22;63859;51.064;4.580;2024-03-23T05:48:22;6.20;99.90
75262;DHT22;63859;51.064;4.580;2024-03-23T05:50:51;6.20;99.90
75262;DHT22;63859;51.064;4.580;2024-03-23T05:53:17;6.30;99.90
75262;DHT22;63859;51.064;4.580;2024-03-23T05:55:43;6.30;99.90
75262;DHT22;63859;51.064;4.580;2024-03-23T06:00:35;6.30;99.90
75262;DHT22;63859;51.064;4.580;2024-03-23T06:03:01;6.30;99.90
75262;DHT22;63859;51.064;4.580;2024-03-23T06:05:27;6.30;99.90
75262;DHT22;63859;51.064;4.580;2024-03-23T06:07:53;6.30;99.90
75262;DHT22;63859;51.064;4.580;2024-03-23T06:10:18;6.30;99.90
75262;DHT22;63859;51.064;4.580;2024-03-23T06:15:12;6.40;99.90
75262;DHT22;63859;51.064;4.580;2024-03-23T06:17:38;6.40;99.90
75262;DHT22;63859;51.064;4.580;2024-03-23T06:20:04;6.30;99.90
75262;DHT22;63859;51.064;4.580;2024-03-23T06:22:31;6.40;99.90
75262;DHT22;63859;51.064;4.580;2024-03-23T06:24:57;6.30;99.90
75262;DHT22;63859;51.064;4.580;2024-03-23T06:27:23;6.30;99.90
75262;DHT22;63859;51.064;4.580;2024-03-23T06:29:49;6.30;99.90
75262;DHT22;63859;51.064;4.580;2024-03-23T06:32:14;6.30;99.90
75262;DHT22;63859;51.064;4.580;2024-03-23T06:34:43;6.30;99.90
75262;DHT22;63859;51.064;4.580;2024-03-23T06:37:09;6.30;99.90
75262;DHT22;63859;51.064;4.580;2024-03-23T06:39:36;6.30;99.90
75262;DHT22;63859;51.064;4.580;2024-03-23T06:42:02;6.30;99.90
75262;DHT22;63859;51.064;4.580;2024-03-23T06:44:28;6.40;99.90
75262;DHT22;63859;51.064;4.580;2024-03-23T06:46:54;6.40;99.90
75262;DHT22;63859;51.064;4.580;2024-03-23T06:49:20;6.50;99.90
75262;DHT22;63859;51.064;4.580;2024-03-23T06:51:46;6.60;99.90
75262;DHT22;63859;51.064;4.580;2024-03-23T06:54:12;6.70;99.90
75262;DHT22;63859;51.064;4.580;2024-03-23T06:56:38;6.70;99.90
75262;DHT22;63859;51.064;4.580;2024-03-23T06:59:03;6.70;99.90
75262;DHT22;63859;51.064;4.580;2024-03-23T07:01:29;6.70;99.90
75262;DHT22;63859;51.064;4.580;2024-03-23T07:03:55;6.70;99.90
75262;DHT22;63859;51.064;4.580;2024-03-23T07:06:21;6.70;99.90
75262;DHT22;63859;51.064;4.580;2024-03-23T07:08:47;6.70;99.90
75262;DHT22;63859;51.064;4.580;2024-03-23T07:11:18;6.80;99.90
75262;DHT22;63859;51.064;4.580;2024-03-23T07:13:45;6.80;99.90
75262;DHT22;63859;51.064;4.580;2024-03-23T07:16:11;6.80;99.90
75262;DHT22;63859;51.064;4.580;2024-03-23T07:18:36;6.80;99.90
75262;DHT22;63859;51.064;4.580;2024-03-23T07:21:02;6.90;99.90
75262;DHT22;63859;51.064;4.580;2024-03-23T07:23:28;6.90;99.90
75262;DHT22;63859;51.064;4.580;2024-03-23T07:26:02;6.90;99.90
75262;DHT22;63859;51.064;4.580;2024-03-23T07:28:28;7.00;99.90
75262;DHT22;63859;51.064;4.580;2024-03-23T07:31:08;7.00;99.90
75262;DHT22;63859;51.064;4.580;2024-03-23T07:33:41;7.00;99.90
75262;DHT22;63859;51.064;4.580;2024-03-23T07:36:07;7.10;99.90
75262;DHT22;63859;51.064;4.580;2024-03-23T07:38:33;7.20;99.90
75262;DHT22;63859;51.064;4.580;2024-03-23T07:41:17;7.30;99.90
75262;DHT22;63859;51.064;4.580;2024-03-23T07:43:43;7.30;99.90
75262;DHT22;63859;51.064;4.580;2024-03-23T07:46:09;7.30;99.90
75262;DHT22;63859;51.064;4.580;2024-03-23T07:48:35;7.30;99.90
75262;DHT22;63859;51.064;4.580;2024-03-23T07:51:11;7.40;99.90
75262;DHT22;63859;51.064;4.580;2024-03-23T07:56:07;7.50;99.90
75262;DHT22;63859;51.064;4.580;2024-03-23T08:03:39;7.70;99.90
75262;DHT22;63859;51.064;4.580;2024-03-23T08:11:07;7.60;99.90
75262;DHT22;63859;51.064;4.580;2024-03-23T08:13:34;7.60;99.90
75262;DHT22;63859;51.064;4.580;2024-03-23T08:16:00;7.70;99.90
75262;DHT22;63859;51.064;4.580;2024-03-23T08:18:27;7.70;99.90
75262;DHT22;63859;51.064;4.580;2024-03-23T08:21:00;7.80;99.90
75262;DHT22;63859;51.064;4.580;2024-03-23T08:23:31;7.80;99.90
75262;DHT22;63859;51.064;4.580;2024-03-23T08:26:03;7.80;99.90
75262;DHT22;63859;51.064;4.580;2024-03-23T08:28:29;7.90;99.90
75262;DHT22;63859;51.064;4.580;2024-03-23T08:30:55;7.80;99.90
75262;DHT22;63859;51.064;4.580;2024-03-23T08:33:25;8.00;99.90
75262;DHT22;63859;51.064;4.580;2024-03-23T08:36:04;8.00;99.90
75262;DHT22;63859;51.064;4.580;2024-03-23T08:38:30;8.00;99.90
75262;DHT22;63859;51.064;4.580;2024-03-23T08:41:04;7.90;99.90
75262;DHT22;63859;51.064;4.580;2024-03-23T08:43:32;7.90;99.90
75262;DHT22;63859;51.064;4.580;2024-03-23T08:46:04;7.90;99.90
75262;DHT22;63859;51.064;4.580;2024-03-23T08:48:31;7.90;99.90
75262;DHT22;63859;51.064;4.580;2024-03-23T08:51:05;7.90;99.90
75262;DHT22;63859;51.064;4.580;2024-03-23T08:53:32;8.00;99.90
75262;DHT22;63859;51.064;4.580;2024-03-23T08:55:58;8.00;99.90
75262;DHT22;63859;51.064;4.580;2024-03-23T08:58:26;8.00;99.90
75262;DHT22;63859;51.064;4.580;2024-03-23T09:00:52;8.00;99.90
75262;DHT22;63859;51.064;4.580;2024-03-23T09:03:18;8.00;99.90
75262;DHT22;63859;51.064;4.580;2024-03-23T09:05:44;8.00;99.90
75262;DHT22;63859;51.064;4.580;2024-03-23T09:08:09;8.00;99.90
75262;DHT22;63859;51.064;4.580;2024-03-23T09:18:03;8.30;99.90
75262;DHT22;63859;51.064;4.580;2024-03-23T09:20:28;8.40;99.90
75262;DHT22;63859;51.064;4.580;2024-03-23T09:22:54;8.60;99.90
75262;DHT22;63859;51.064;4.580;2024-03-23T09:25:20;8.60;99.90
75262;DHT22;63859;51.064;4.580;2024-03-23T09:27:48;8.70;99.90
75262;DHT22;63859;51.064;4.580;2024-03-23T09:30:14;8.70;99.90
75262;DHT22;63859;51.064;4.580;2024-03-23T09:32:43;8.70;99.90
75262;DHT22;63859;51.064;4.580;2024-03-23T09:35:09;8.60;99.90
75262;DHT22;63859;51.064;4.580;2024-03-23T09:37:34;8.70;99.90
75262;DHT22;63859;51.064;4.580;2024-03-23T09:40:00;8.70;99.90
75262;DHT22;63859;51.064;4.580;2024-03-23T09:42:26;8.70;99.90
75262;DHT22;63859;51.064;4.580;2024-03-23T09:44:51;8.60;99.90
75262;DHT22;63859;51.064;4.580;2024-03-23T09:47:18;8.00;99.90
75262;DHT22;63859;51.064;4.580;2024-03-23T09:49:44;7.50;99.90
75262;DHT22;63859;51.064;4.580;2024-03-23T09:52:10;7.20;99.90
75262;DHT22;63859;51.064;4.580;2024-03-23T09:54:35;6.90;99.90
75262;DHT22;63859;51.064;4.580;2024-03-23T09:57:01;6.90;99.90
75262;DHT22;63859;51.064;4.580;2024-03-23T09:59:27;6.80;99.90
75262;DHT22;63859;51.064;4.580;2024-03-23T10:01:53;6.80;99.90
75262;DHT22;63859;51.064;4.580;2024-03-23T10:07:23;7.00;99.90
75262;DHT22;63859;51.064;4.580;2024-03-23T10:09:49;7.10;99.90
75262;DHT22;63859;51.064;4.580;2024-03-23T10:12:18;7.20;99.90
75262;DHT22;63859;51.064;4.580;2024-03-23T10:14:45;7.20;99.90
75262;DHT22;63859;51.064;4.580;2024-03-23T10:17:21;7.10;99.90
75262;DHT22;63859;51.064;4.580;2024-03-23T10:19:52;6.70;99.90
75262;DHT22;63859;51.064;4.580;2024-03-23T10:22:22;6.50;99.90
75262;DHT22;63859;51.064;4.580;2024-03-23T10:24:48;6.20;99.90
75262;DHT22;63859;51.064;4.580;2024-03-23T10:27:20;6.00;99.90
75262;DHT22;63859;51.064;4.580;2024-03-23T10:29:50;6.00;99.90
75262;DHT22;63859;51.064;4.580;2024-03-23T10:34:43;6.00;99.90
75262;DHT22;63859;51.064;4.580;2024-03-23T10:37:09;6.10;99.90
75262;DHT22;63859;51.064;4.580;2024-03-23T10:39:39;6.20;99.90
75262;DHT22;63859;51.064;4.580;2024-03-23T10:42:09;6.30;99.90
75262;DHT22;63859;51.064;4.580;2024-03-23T10:44:38;6.40;99.90
75262;DHT22;63859;51.064;4.580;2024-03-23T10:47:05;6.50;99.90
75262;DHT22;63859;51.064;4.580;2024-03-23T10:49:34;6.90;99.90
75262;DHT22;63859;51.064;4.580;2024-03-23T10:52:02;7.20;99.90
75262;DHT22;63859;51.064;4.580;2024-03-23T10:54:30;7.20;99.90
75262;DHT22;63859;51.064;4.580;2024-03-23T10:57:14;7.20;99.90
75262;DHT22;63859;51.064;4.580;2024-03-23T10:59:44;7.10;99.90
75262;DHT22;63859;51.064;4.580;2024-03-23T11:04:45;7.50;99.90
75262;DHT22;63859;51.064;4.580;2024-03-23T11:07:32;7.50;99.90
75262;DHT22;63859;51.064;4.580;2024-03-23T11:09:58;7.50;99.90
75262;DHT22;63859;51.064;4.580;2024-03-23T11:12:29;7.60;99.90
75262;DHT22;63859;51.064;4.580;2024-03-23T11:15:06;7.70;99.90
75262;DHT22;63859;51.064;4.580;2024-03-23T11:17:36;7.80;99.90
75262;DHT22;63859;51.064;4.580;2024-03-23T11:20:03;8.20;99.90
75262;DHT22;63859;51.064;4.580;2024-03-23T11:25:20;8.60;99.90
75262;DHT22;63859;51.064;4.580;2024-03-23T11:27:55;8.80;99.90
75262;DHT22;63859;51.064;4.580;2024-03-23T11:30:23;8.90;99.90
75262;DHT22;63859;51.064;4.580;2024-03-23T11:38:14;9.60;99.90
75262;DHT22;63859;51.064;4.580;2024-03-23T11:40:42;9.90;99.90
75262;DHT22;63859;51.064;4.580;2024-03-23T11:43:13;10.20;99.90
75262;DHT22;63859;51.064;4.580;2024-03-23T11:45:43;10.40;99.90
75262;DHT22;63859;51.064;4.580;2024-03-23T11:48:16;10.30;99.90
75262;DHT22;63859;51.064;4.580;2024-03-23T11:50:46;10.10;99.90
75262;DHT22;63859;51.064;4.580;2024-03-23T11:53:14;10.30;99.90
75262;DHT22;63859;51.064;4.580;2024-03-23T11:55:50;10.20;99.90
75262;DHT22;63859;51.064;4.580;2024-03-23T11:58:17;10.20;99.90
75262;DHT22;63859;51.064;4.580;2024-03-23T12:03:16;9.80;99.90
75262;DHT22;63859;51.064;4.580;2024-03-23T12:05:50;9.40;99.90
75262;DHT22;63859;51.064;4.580;2024-03-23T12:08:31;9.20;99.90
75262;DHT22;63859;51.064;4.580;2024-03-23T12:13:39;9.00;99.90
75262;DHT22;63859;51.064;4.580;2024-03-23T12:16:10;9.60;99.90
75262;DHT22;63859;51.064;4.580;2024-03-23T12:21:06;10.00;99.90
75262;DHT22;63859;51.064;4.580;2024-03-23T12:23:33;10.40;99.90
75262;DHT22;63859;51.064;4.580;2024-03-23T12:25:59;10.40;99.90
75262;DHT22;63859;51.064;4.580;2024-03-23T12:28:24;10.20;99.90
75262;DHT22;63859;51.064;4.580;2024-03-23T12:30:51;10.50;99.90
75262;DHT22;63859;51.064;4.580;2024-03-23T12:33:20;10.20;99.90
75262;DHT22;63859;51.064;4.580;2024-03-23T12:35:47;10.00;99.90
75262;DHT22;63859;51.064;4.580;2024-03-23T12:38:13;9.90;99.90
75262;DHT22;63859;51.064;4.580;2024-03-23T12:40:38;9.70;99.90
75262;DHT22;63859;51.064;4.580;2024-03-23T12:43:04;9.30;99.90
75262;DHT22;63859;51.064;4.580;2024-03-23T12:45:30;8.70;99.90
75262;DHT22;63859;51.064;4.580;2024-03-23T12:47:55;8.10;99.90
75262;DHT22;63859;51.064;4.580;2024-03-23T12:50:21;8.20;99.90
75262;DHT22;63859;51.064;4.580;2024-03-23T12:52:47;8.20;99.90
75262;DHT22;63859;51.064;4.580;2024-03-23T12:55:13;8.10;99.90
75262;DHT22;63859;51.064;4.580;2024-03-23T12:57:38;8.20;99.90
75262;DHT22;63859;51.064;4.580;2024-03-23T13:02:32;9.10;99.90
75262;DHT22;63859;51.064;4.580;2024-03-23T13:07:26;9.10;99.90
75262;DHT22;63859;51.064;4.580;2024-03-23T13:09:52;9.20;99.90
75262;DHT22;63859;51.064;4.580;2024-03-23T13:12:21;9.60;99.90
75262;DHT22;63859;51.064;4.580;2024-03-23T13:14:47;9.60;99.90
75262;DHT22;63859;51.064;4.580;2024-03-23T13:17:13;9.80;99.90
75262;DHT22;63859;51.064;4.580;2024-03-23T13:19:38;9.80;99.90
75262;DHT22;63859;51.064;4.580;2024-03-23T13:24:31;9.60;99.90
75262;DHT22;63859;51.064;4.580;2024-03-23T13:26:57;9.60;99.90
75262;DHT22;63859;51.064;4.580;2024-03-23T13:31:51;9.70;99.90
75262;DHT22;63859;51.064;4.580;2024-03-23T13:34:17;9.60;99.90
75262;DHT22;63859;51.064;4.580;2024-03-23T13:36:44;9.60;99.90
75262;DHT22;63859;51.064;4.580;2024-03-23T13:41:45;9.50;99.90
75262;DHT22;63859;51.064;4.580;2024-03-23T13:44:12;9.30;99.90
75262;DHT22;63859;51.064;4.580;2024-03-23T13:46:42;8.60;99.90
75262;DHT22;63859;51.064;4.580;2024-03-23T13:51:46;8.50;99.90
75262;DHT22;63859;51.064;4.580;2024-03-23T13:54:13;8.40;99.90
75262;DHT22;63859;51.064;4.580;2024-03-23T13:56:38;8.40;99.90
75262;DHT22;63859;51.064;4.580;2024-03-23T13:59:04;8.30;99.90
75262;DHT22;63859;51.064;4.580;2024-03-23T14:01:30;8.80;99.90
75262;DHT22;63859;51.064;4.580;2024-03-23T14:03:55;9.10;99.90
75262;DHT22;63859;51.064;4.580;2024-03-23T14:06:21;10.20;99.90
75262;DHT22;63859;51.064;4.580;2024-03-23T14:11:18;10.60;99.90
75262;DHT22;63859;51.064;4.580;2024-03-23T14:13:44;11.10;99.90
75262;DHT22;63859;51.064;4.580;2024-03-23T14:16:10;11.50;99.90
75262;DHT22;63859;51.064;4.580;2024-03-23T14:18:36;11.60;99.90
75262;DHT22;63859;51.064;4.580;2024-03-23T14:21:01;11.70;99.90
75262;DHT22;63859;51.064;4.580;2024-03-23T14:23:30;12.20;99.90
75262;DHT22;63859;51.064;4.580;2024-03-23T14:25:58;12.40;99.90
75262;DHT22;63859;51.064;4.580;2024-03-23T14:28:24;12.50;99.90
75262;DHT22;63859;51.064;4.580;2024-03-23T14:30:51;12.20;99.90
75262;DHT22;63859;51.064;4.580;2024-03-23T14:33:17;12.30;99.90
75262;DHT22;63859;51.064;4.580;2024-03-23T14:35:51;12.70;99.90
75262;DHT22;63859;51.064;4.580;2024-03-23T14:38:17;12.70;99.90
75262;DHT22;63859;51.064;4.580;2024-03-23T14:40:42;12.80;99.90
75262;DHT22;63859;51.064;4.580;2024-03-23T14:43:08;13.10;99.90
75262;DHT22;63859;51.064;4.580;2024-03-23T14:45:33;12.90;99.90
75262;DHT22;63859;51.064;4.580;2024-03-23T14:47:59;12.50;99.90
75262;DHT22;63859;51.064;4.580;2024-03-23T14:50:26;12.20;99.90
75262;DHT22;63859;51.064;4.580;2024-03-23T14:52:51;11.90;99.90
75262;DHT22;63859;51.064;4.580;2024-03-23T14:55:18;11.80;99.90
75262;DHT22;63859;51.064;4.580;2024-03-23T14:57:43;11.40;99.90
75262;DHT22;63859;51.064;4.580;2024-03-23T15:00:10;11.10;99.90
75262;DHT22;63859;51.064;4.580;2024-03-23T15:02:39;11.00;99.90
75262;DHT22;63859;51.064;4.580;2024-03-23T15:05:05;11.00;99.90
75262;DHT22;63859;51.064;4.580;2024-03-23T15:07:33;11.30;99.90
75262;DHT22;63859;51.064;4.580;2024-03-23T15:09:58;11.30;99.90
75262;DHT22;63859;51.064;4.580;2024-03-23T15:12:24;11.00;99.90
75262;DHT22;63859;51.064;4.580;2024-03-23T15:14:50;10.70;99.90
75262;DHT22;63859;51.064;4.580;2024-03-23T15:17:15;10.30;99.90
75262;DHT22;63859;51.064;4.580;2024-03-23T15:19:41;10.20;99.90
75262;DHT22;63859;51.064;4.580;2024-03-23T15:22:08;10.20;99.90
75262;DHT22;63859;51.064;4.580;2024-03-23T15:24:34;10.00;99.90
75262;DHT22;63859;51.064;4.580;2024-03-23T15:27:04;9.70;99.90
75262;DHT22;63859;51.064;4.580;2024-03-23T15:29:30;9.60;99.90
75262;DHT22;63859;51.064;4.580;2024-03-23T15:31:56;9.60;99.90
75262;DHT22;63859;51.064;4.580;2024-03-23T15:34:22;9.30;99.90
75262;DHT22;63859;51.064;4.580;2024-03-23T15:36:49;9.10;99.90
75262;DHT22;63859;51.064;4.580;2024-03-23T15:41:44;10.30;99.90
75262;DHT22;63859;51.064;4.580;2024-03-23T15:44:09;10.50;99.90
75262;DHT22;63859;51.064;4.580;2024-03-23T15:46:35;10.90;99.90
75262;DHT22;63859;51.064;4.580;2024-03-23T15:49:01;11.20;99.90
75262;DHT22;63859;51.064;4.580;2024-03-23T15:51:27;11.70;99.90
75262;DHT22;63859;51.064;4.580;2024-03-23T15:53:58;12.20;99.90
75262;DHT22;63859;51.064;4.580;2024-03-23T15:56:24;12.70;99.90
75262;DHT22;63859;51.064;4.580;2024-03-23T15:58:50;13.20;99.90
75262;DHT22;63859;51.064;4.580;2024-03-23T16:01:15;13.20;99.90
75262;DHT22;63859;51.064;4.580;2024-03-23T16:08:34;14.10;99.90
75262;DHT22;63859;51.064;4.580;2024-03-23T16:11:01;14.40;99.90
75262;DHT22;63859;51.064;4.580;2024-03-23T16:13:28;14.20;99.90
75262;DHT22;63859;51.064;4.580;2024-03-23T16:15:58;14.30;99.90
75262;DHT22;63859;51.064;4.580;2024-03-23T16:18:24;14.00;99.90
75262;DHT22;63859;51.064;4.580;2024-03-23T16:23:20;14.10;99.90
75262;DHT22;63859;51.064;4.580;2024-03-23T16:25:53;13.80;99.90
75262;DHT22;63859;51.064;4.580;2024-03-23T16:28:33;13.80;99.90
75262;DHT22;63859;51.064;4.580;2024-03-23T16:36:03;12.70;99.90
75262;DHT22;63859;51.064;4.580;2024-03-23T16:38:36;12.80;99.90
75262;DHT22;63859;51.064;4.580;2024-03-23T16:41:09;12.70;99.90
75262;DHT22;63859;51.064;4.580;2024-03-23T16:43:35;12.50;99.90
75262;DHT22;63859;51.064;4.580;2024-03-23T16:48:32;11.30;99.90
75262;DHT22;63859;51.064;4.580;2024-03-23T16:51:01;10.80;99.90
75262;DHT22;63859;51.064;4.580;2024-03-23T16:53:29;10.50;99.90
75262;DHT22;63859;51.064;4.580;2024-03-23T16:56:03;10.10;99.90
75262;DHT22;63859;51.064;4.580;2024-03-23T16:58:30;9.80;99.90
75262;DHT22;63859;51.064;4.580;2024-03-23T17:01:02;9.70;99.90
75262;DHT22;63859;51.064;4.580;2024-03-23T17:03:28;9.60;99.90
75262;DHT22;63859;51.064;4.580;2024-03-23T17:05:53;9.50;99.90
75262;DHT22;63859;51.064;4.580;2024-03-23T17:08:19;9.40;99.90
75262;DHT22;63859;51.064;4.580;2024-03-23T17:10:45;9.20;99.90
75262;DHT22;63859;51.064;4.580;2024-03-23T17:13:12;9.00;99.90
75262;DHT22;63859;51.064;4.580;2024-03-23T17:18:09;8.80;99.90
75262;DHT22;63859;51.064;4.580;2024-03-23T17:20:35;8.70;99.90
75262;DHT22;63859;51.064;4.580;2024-03-23T17:23:01;8.60;99.90
75262;DHT22;63859;51.064;4.580;2024-03-23T17:25:26;8.50;99.90
75262;DHT22;63859;51.064;4.580;2024-03-23T17:27:52;8.40;99.90
75262;DHT22;63859;51.064;4.580;2024-03-23T17:30:18;8.30;99.90
75262;DHT22;63859;51.064;4.580;2024-03-23T17:32:44;8.30;99.90
75262;DHT22;63859;51.064;4.580;2024-03-23T17:35:11;8.20;99.90
75262;DHT22;63859;51.064;4.580;2024-03-23T17:37:37;8.20;99.90
75262;DHT22;63859;51.064;4.580;2024-03-23T17:40:04;8.10;99.90
75262;DHT22;63859;51.064;4.580;2024-03-23T17:42:36;8.00;99.90
75262;DHT22;63859;51.064;4.580;2024-03-23T17:45:02;7.90;99.90
75262;DHT22;63859;51.064;4.580;2024-03-23T17:47:34;7.90;99.90
75262;DHT22;63859;51.064;4.580;2024-03-23T17:49:59;7.90;99.90
75262;DHT22;63859;51.064;4.580;2024-03-23T17:52:25;7.80;99.90
75262;DHT22;63859;51.064;4.580;2024-03-23T17:54:51;7.70;99.90
75262;DHT22;63859;51.064;4.580;2024-03-23T17:57:16;7.60;99.90
75262;DHT22;63859;51.064;4.580;2024-03-23T17:59:42;7.40;99.90
75262;DHT22;63859;51.064;4.580;2024-03-23T18:02:08;7.20;99.90
75262;DHT22;63859;51.064;4.580;2024-03-23T18:04:33;7.00;99.90